createdAt,value
2019-02-15T00:32:26.129Z,17.23
2019-02-15T00:34:54.905Z,15.80
2019-02-15T00:37:23.585Z,14.13
2019-02-15T00:39:52.596Z,17.83
2019-02-15T00:42:21.279Z,15.93
2019-02-15T00:44:49.961Z,15.03
2019-02-15T00:47:20.293Z,18.63
2019-02-15T00:49:50.832Z,24.27
2019-02-15T00:52:21.101Z,21.63
2019-02-15T00:54:51.570Z,12.63
2019-02-15T00:57:21.832Z,13.53
2019-02-15T00:59:52.184Z,20.23
2019-02-15T01:02:21.995Z,17.40
2019-02-15T01:04:50.627Z,16.40
2019-02-15T01:07:21.018Z,11.00
2019-02-15T01:09:51.363Z,11.70
2019-02-15T01:12:21.691Z,11.47
2019-02-15T01:14:50.353Z,10.50
2019-02-15T01:17:19.112Z,14.10
2019-02-15T01:19:47.818Z,18.40
2019-02-15T01:22:16.584Z,10.77
2019-02-15T01:24:45.325Z,13.30
2019-02-15T01:27:15.676Z,21.30
2019-02-15T01:29:46.067Z,14.80
2019-02-15T01:32:16.313Z,14.60
2019-02-15T01:34:46.605Z,18.43
2019-02-15T01:37:17.805Z,14.10
2019-02-15T01:39:48.167Z,14.17
2019-02-15T01:42:18.032Z,16.73
2019-02-15T01:44:48.356Z,20.70
2019-02-15T01:47:17.919Z,21.60
2019-02-15T01:49:46.595Z,20.10
2019-02-15T01:52:15.297Z,11.50
2019-02-15T01:54:44.092Z,13.57
2019-02-15T01:57:12.865Z,15.23
2019-02-15T01:59:41.488Z,22.10
2019-02-15T02:02:10.273Z,11.70
2019-02-15T02:04:39.207Z,15.80
2019-02-15T02:07:08.022Z,17.67
2019-02-15T02:09:36.729Z,14.60
2019-02-15T02:12:05.742Z,15.63
2019-02-15T02:14:34.462Z,17.10
2019-02-15T02:17:03.189Z,16.70
2019-02-15T02:19:31.953Z,16.93
2019-02-15T02:22:00.650Z,16.63
2019-02-15T02:24:29.437Z,16.50
2019-02-15T02:26:58.095Z,19.40
2019-02-15T02:29:26.707Z,19.70
2019-02-15T03:31:38.782Z,11.73
2019-02-15T03:34:07.511Z,11.50
2019-02-15T03:36:37.775Z,10.17
2019-02-15T03:39:08.914Z,12.87
2019-02-15T03:41:37.660Z,10.03
2019-02-15T03:44:06.390Z,10.30
2019-02-15T03:46:35.110Z,9.33
2019-02-15T03:49:03.839Z,12.40
2019-02-15T03:51:32.586Z,14.40
2019-02-15T03:54:01.276Z,14.90
2019-02-15T03:56:30.023Z,25.00
2019-02-15T03:58:58.795Z,9.53
2019-02-15T04:01:27.488Z,16.93
2019-02-15T04:03:56.366Z,17.13
2019-02-15T04:06:25.050Z,10.50
2019-02-15T04:08:53.837Z,9.57
2019-02-15T04:11:22.585Z,10.00
2019-02-15T04:13:51.413Z,19.90
2019-02-15T04:16:20.118Z,8.60
2019-02-15T04:18:48.776Z,8.57
2019-02-15T04:21:17.459Z,8.37
2019-02-15T04:23:46.231Z,8.77
2019-02-15T04:26:14.844Z,9.53
2019-02-15T04:28:43.533Z,9.50
2019-02-15T04:31:12.336Z,8.80
2019-02-15T04:33:41.074Z,9.53
2019-02-15T04:36:10.023Z,9.10
2019-02-15T04:38:38.830Z,11.30
2019-02-15T04:41:07.778Z,8.17
2019-02-15T04:43:36.530Z,7.97
2019-02-15T04:46:05.281Z,8.70
2019-02-15T04:48:33.928Z,8.40
2019-02-15T04:51:02.507Z,8.83
2019-02-15T04:53:31.197Z,9.13
2019-02-15T04:55:59.901Z,7.50
2019-02-15T04:58:28.626Z,8.00
2019-02-15T05:00:57.290Z,8.30
2019-02-15T05:03:25.899Z,9.30
2019-02-15T05:05:54.660Z,8.77
2019-02-15T05:08:23.443Z,9.03
2019-02-15T05:10:52.402Z,7.13
2019-02-15T05:13:22.396Z,8.07
2019-02-15T05:15:51.165Z,9.37
2019-02-15T05:18:19.914Z,11.93
2019-02-15T05:20:48.617Z,8.43
2019-02-15T05:23:17.226Z,10.00
2019-02-15T05:25:45.925Z,7.07
2019-02-15T05:28:14.574Z,8.10
2019-02-15T05:30:43.381Z,13.03
2019-02-15T05:33:12.118Z,7.70
2019-02-15T05:35:40.779Z,7.77
2019-02-15T05:38:09.449Z,10.47
2019-02-15T05:40:38.173Z,6.73
2019-02-15T05:43:06.956Z,6.77
2019-02-15T05:45:35.729Z,7.83
2019-02-15T05:48:04.441Z,9.67
2019-02-15T05:50:33.183Z,12.50
2019-02-15T05:53:01.966Z,10.17
2019-02-15T05:55:30.691Z,6.73
2019-02-15T05:57:59.366Z,5.23
2019-02-15T06:00:36.743Z,9.20
2019-02-15T06:02:58.968Z,5.23
2019-02-15T06:05:27.709Z,6.87
2019-02-15T06:07:57.372Z,6.30
2019-02-15T06:10:26.070Z,12.53
2019-02-15T06:12:54.811Z,8.07
2019-02-15T06:15:23.529Z,8.70
2019-02-15T06:17:52.196Z,7.57
2019-02-15T06:20:21.000Z,7.53
2019-02-15T06:22:49.640Z,14.80
2019-02-15T06:25:18.333Z,7.70
2019-02-15T06:27:46.904Z,11.37
2019-02-15T06:30:15.773Z,7.80
2019-02-15T06:32:44.480Z,10.67
2019-02-15T06:35:14.512Z,7.37
2019-02-15T06:37:43.219Z,12.37
2019-02-15T06:40:11.854Z,11.33
2019-02-15T06:42:40.557Z,22.73
2019-02-15T06:45:09.297Z,17.53
2019-02-15T06:47:37.972Z,7.97
2019-02-15T06:50:08.018Z,8.77
2019-02-15T06:52:36.794Z,13.87
2019-02-15T06:55:06.750Z,8.20
2019-02-15T06:57:35.431Z,11.13
2019-02-15T07:00:08.582Z,10.57
2019-02-15T07:02:38.919Z,8.73
2019-02-15T07:05:08.850Z,7.03
2019-02-15T07:07:37.471Z,7.17
2019-02-15T07:10:07.271Z,6.73
2019-02-15T07:12:35.970Z,8.47
2019-02-15T07:15:05.992Z,10.80
2019-02-15T07:17:34.707Z,13.83
2019-02-15T07:20:03.749Z,12.33
2019-02-15T07:22:32.402Z,6.80
2019-02-15T07:25:01.176Z,10.90
2019-02-15T07:27:29.978Z,14.40
2019-02-15T07:29:58.629Z,10.43
2019-02-15T07:32:27.263Z,19.47
2019-02-15T07:34:55.859Z,9.87
2019-02-15T07:37:24.574Z,11.40
2019-02-15T07:39:53.242Z,7.97
2019-02-15T07:42:21.944Z,13.87
2019-02-15T07:44:50.536Z,8.97
2019-02-15T07:47:19.182Z,12.00
2019-02-15T07:49:47.971Z,14.90
2019-02-15T07:52:16.666Z,23.73
2019-02-15T07:54:45.519Z,14.20
2019-02-15T07:57:14.103Z,10.20
2019-02-15T07:59:42.807Z,8.90
2019-02-15T08:02:11.472Z,9.13
2019-02-15T08:04:40.160Z,11.10
2019-02-15T08:07:08.942Z,5.90
2019-02-15T08:09:37.665Z,15.93
2019-02-15T08:12:06.413Z,13.43
2019-02-15T08:14:35.107Z,9.37
2019-02-15T08:17:03.855Z,9.00
2019-02-15T08:19:32.555Z,12.00
2019-02-15T08:22:01.221Z,8.00
2019-02-15T08:24:29.973Z,21.13
2019-02-15T08:27:00.126Z,9.43
2019-02-15T08:29:28.803Z,16.60
2019-02-15T08:31:57.624Z,11.10
2019-02-15T08:34:26.480Z,19.83
2019-02-15T08:36:55.249Z,18.83
2019-02-15T08:39:23.988Z,9.87
2019-02-15T08:42:01.293Z,6.10
2019-02-15T08:44:23.430Z,6.80
2019-02-15T08:46:52.174Z,19.97
2019-02-15T08:49:20.803Z,6.73
2019-02-15T08:51:49.554Z,12.03
2019-02-15T08:54:18.282Z,7.00
2019-02-15T08:59:08.141Z,10.00
2019-02-15T09:01:36.782Z,7.87
2019-02-15T09:04:05.512Z,5.37
2019-02-15T09:06:34.266Z,17.47
2019-02-15T09:09:04.776Z,6.03
2019-02-15T09:11:33.516Z,5.10
2019-02-15T09:14:02.291Z,18.63
2019-02-15T09:16:30.977Z,18.70
2019-02-15T09:18:59.606Z,6.00
2019-02-15T09:21:28.247Z,6.90
2019-02-15T09:23:58.576Z,7.20
2019-02-15T09:26:27.231Z,5.30
2019-02-15T09:28:57.521Z,6.50
2019-02-15T09:31:26.404Z,6.33
2019-02-15T09:33:55.060Z,12.33
2019-02-15T09:36:23.878Z,4.97
2019-02-15T09:38:52.598Z,10.43
2019-02-15T09:41:21.301Z,12.20
2019-02-15T09:43:50.036Z,4.50
2019-02-15T09:46:20.143Z,4.43
2019-02-15T09:48:49.158Z,5.73
2019-02-15T09:51:17.877Z,4.20
2019-02-15T09:53:46.675Z,8.50
2019-02-15T09:56:15.330Z,8.83
2019-02-15T09:58:44.104Z,4.90
2019-02-15T10:01:12.940Z,6.43
2019-02-15T10:03:41.620Z,5.03
2019-02-15T10:06:10.330Z,3.50
2019-02-15T10:08:39.147Z,6.13
2019-02-15T10:11:07.880Z,4.30
2019-02-15T10:13:36.639Z,4.67
2019-02-15T10:16:05.474Z,4.20
2019-02-15T10:18:34.247Z,9.70
2019-02-15T10:21:02.993Z,5.10
2019-02-15T10:23:31.721Z,6.70
2019-02-15T10:26:00.471Z,7.70
2019-02-15T10:28:29.175Z,5.10
2019-02-15T10:30:58.068Z,12.07
2019-02-15T10:33:26.709Z,5.40
2019-02-15T10:35:55.367Z,7.20
2019-02-15T10:38:24.135Z,12.83
2019-02-15T10:40:52.994Z,3.80
2019-02-15T10:43:23.166Z,3.87
2019-02-15T10:45:51.953Z,6.27
2019-02-15T10:48:20.961Z,7.50
2019-02-15T10:50:49.838Z,4.53
2019-02-15T10:53:19.827Z,5.77
2019-02-15T10:56:03.207Z,3.60
2019-02-15T10:58:41.861Z,3.40
2019-02-15T11:01:10.580Z,3.77
2019-02-15T11:03:39.351Z,4.47
2019-02-15T11:06:08.631Z,3.53
2019-02-15T11:08:37.521Z,13.40
2019-02-15T11:11:06.300Z,4.50
2019-02-15T11:13:35.108Z,6.97
2019-02-15T11:16:03.867Z,3.53
2019-02-15T11:18:32.682Z,3.33
2019-02-15T11:21:01.547Z,3.70
2019-02-15T11:23:30.301Z,4.13
2019-02-15T11:25:59.080Z,3.83
2019-02-15T11:28:27.775Z,5.53
2019-02-15T11:30:56.668Z,4.20
2019-02-15T11:33:25.425Z,3.83
2019-02-15T11:35:54.172Z,3.33
2019-02-15T11:38:22.790Z,4.80
2019-02-15T11:40:51.482Z,2.90
2019-02-15T11:43:20.208Z,3.80
2019-02-15T11:45:48.943Z,2.40
2019-02-15T11:48:17.681Z,2.80
2019-02-15T11:50:46.556Z,3.03
2019-02-15T11:53:15.147Z,2.93
2019-02-15T11:55:44.087Z,8.97
2019-02-15T11:58:13.205Z,3.37
2019-02-15T12:00:42.355Z,5.50
2019-02-15T12:03:11.399Z,2.70
2019-02-15T12:05:40.032Z,3.00
2019-02-15T12:08:08.785Z,6.93
2019-02-15T12:10:37.603Z,6.83
2019-02-15T12:13:06.425Z,4.03
2019-02-15T12:15:35.160Z,3.03
2019-02-15T12:18:03.919Z,1.17
2019-02-15T12:20:32.695Z,1.30
2019-02-15T12:23:57.569Z,1.90
2019-02-15T12:25:47.487Z,0.90
2019-02-15T12:28:16.248Z,1.60
2019-02-15T12:30:50.817Z,5.93
2019-02-15T12:33:32.401Z,3.73
2019-02-15T12:36:02.621Z,2.70
2019-02-15T12:38:35.541Z,0.83
2019-02-15T12:41:13.492Z,6.07
2019-02-15T12:43:45.412Z,0.90
2019-02-15T12:46:14.324Z,2.63
2019-02-15T12:48:44.361Z,0.80
2019-02-15T12:51:16.936Z,1.00
2019-02-15T12:53:48.292Z,1.03
2019-02-15T12:56:16.881Z,0.90
2019-02-15T12:58:45.592Z,1.67
2019-02-15T13:01:14.329Z,0.90
2019-02-15T13:03:43.034Z,0.90
2019-02-15T13:06:11.756Z,1.00
2019-02-15T13:08:40.605Z,1.00
2019-02-15T13:11:09.326Z,6.37
2019-02-15T13:13:38.118Z,2.03
2019-02-15T13:16:06.992Z,1.07
2019-02-15T13:18:35.831Z,0.80
2019-02-15T13:21:04.679Z,0.83
2019-02-15T13:23:33.438Z,1.00
2019-02-15T13:26:08.573Z,0.80
2019-02-15T13:28:32.783Z,0.83
2019-02-15T13:31:14.199Z,0.93
2019-02-15T13:33:44.727Z,6.10
2019-02-15T13:36:13.404Z,0.90
2019-02-15T13:38:42.296Z,4.33
2019-02-15T13:41:11.101Z,0.93
2019-02-15T13:43:54.954Z,0.93
2019-02-15T13:46:25.120Z,1.00
2019-02-15T13:48:53.899Z,0.97
2019-02-15T13:51:24.553Z,3.70
2019-02-15T13:53:53.183Z,1.10
2019-02-15T13:56:22.021Z,1.67
2019-02-15T13:58:50.818Z,1.70
2019-02-15T14:01:19.714Z,0.80
2019-02-15T14:03:48.534Z,0.80
2019-02-15T14:06:17.295Z,1.30
2019-02-15T14:08:46.057Z,1.70
2019-02-15T14:11:14.851Z,1.83
2019-02-15T14:13:43.630Z,0.90
2019-02-15T14:16:12.408Z,1.97
2019-02-15T14:18:41.114Z,0.97
2019-02-15T14:21:09.888Z,0.90
2019-02-15T14:23:38.681Z,1.00
2019-02-15T14:26:07.478Z,0.93
2019-02-15T14:28:36.355Z,1.40
2019-02-15T14:31:09.071Z,1.20
2019-02-15T14:33:45.202Z,1.43
2019-02-15T14:36:15.552Z,1.30
2019-02-15T14:38:44.402Z,1.10
2019-02-15T14:41:13.272Z,2.93
2019-02-15T14:43:41.931Z,0.90
2019-02-15T14:46:10.673Z,1.03
2019-02-15T14:48:39.508Z,4.10
2019-02-15T14:51:08.334Z,1.10
2019-02-15T14:53:37.163Z,0.90
2019-02-15T14:56:06.308Z,1.00
2019-02-15T14:58:35.093Z,0.80
2019-02-15T15:01:06.524Z,0.90
2019-02-15T15:03:35.273Z,0.80
2019-02-15T15:06:04.058Z,0.90
2019-02-15T15:08:32.826Z,5.37
2019-02-15T15:11:01.487Z,0.90
2019-02-15T15:13:30.283Z,1.10
2019-02-15T15:15:59.032Z,2.57
2019-02-15T15:18:27.826Z,1.13
2019-02-15T15:20:56.631Z,0.80
2019-02-15T15:23:25.449Z,1.47
2019-02-15T15:25:54.193Z,1.20
2019-02-15T15:28:22.891Z,2.33
2019-02-15T15:30:51.824Z,1.70
2019-02-15T15:33:20.834Z,1.73
2019-02-15T15:35:49.609Z,1.50
2019-02-15T15:38:18.363Z,1.60
2019-02-15T15:40:47.257Z,1.57
2019-02-15T15:43:15.888Z,1.73
2019-02-15T15:45:44.767Z,1.33
2019-02-15T15:48:22.484Z,3.77
2019-02-15T15:50:45.478Z,0.83
2019-02-15T15:53:14.369Z,3.87
2019-02-15T15:55:43.059Z,1.60
2019-02-15T15:58:11.977Z,3.20
2019-02-15T16:00:40.750Z,1.37
2019-02-15T16:03:09.469Z,1.00
2019-02-15T16:05:38.413Z,2.07
2019-02-15T16:08:07.258Z,3.37
2019-02-15T16:10:35.954Z,1.53
2019-02-15T16:13:04.722Z,3.73
2019-02-15T16:15:33.547Z,1.50
2019-02-15T16:18:02.383Z,3.30
2019-02-15T16:20:31.196Z,2.20
2019-02-15T16:22:59.927Z,2.10
2019-02-15T16:25:28.578Z,4.13
2019-02-15T16:27:57.391Z,2.90
2019-02-15T16:30:26.227Z,5.43
2019-02-15T16:32:55.064Z,1.83
2019-02-15T16:35:23.868Z,1.40
2019-02-15T16:37:52.630Z,1.87
2019-02-15T16:40:21.470Z,4.77
2019-02-15T16:42:50.246Z,5.13
2019-02-15T16:45:19.152Z,1.83
2019-02-15T16:47:47.797Z,2.43
2019-02-15T16:50:16.510Z,4.23
2019-02-15T16:52:45.206Z,4.97
2019-02-15T16:55:14.016Z,1.47
2019-02-15T16:57:42.923Z,4.37
2019-02-15T17:00:13.262Z,3.43
2019-02-15T17:02:41.999Z,1.70
2019-02-15T17:05:11.053Z,13.27
2019-02-15T17:07:39.893Z,3.23
2019-02-15T17:10:10.125Z,1.40
2019-02-15T17:12:39.105Z,2.60
2019-02-15T17:15:10.845Z,2.47
2019-02-15T17:17:39.597Z,1.97
2019-02-15T17:20:09.854Z,2.73
2019-02-15T17:22:38.790Z,2.00
2019-02-15T17:25:09.901Z,2.07
2019-02-15T17:27:38.618Z,2.03
2019-02-15T17:30:10.019Z,2.40
2019-02-15T17:32:38.777Z,2.30
2019-02-15T17:35:09.891Z,2.73
2019-02-15T17:37:38.574Z,2.30
2019-02-15T17:40:10.148Z,2.30
2019-02-15T17:42:38.867Z,4.40
2019-02-15T17:45:10.085Z,2.40
2019-02-15T17:47:38.943Z,3.50
2019-02-15T17:50:09.972Z,6.27
2019-02-15T17:52:39.885Z,2.50
2019-02-15T17:55:10.164Z,2.27
2019-02-15T17:57:38.980Z,3.43
2019-02-15T18:00:10.818Z,3.27
2019-02-15T18:02:39.704Z,2.57
2019-02-15T18:05:11.747Z,2.73
2019-02-15T18:07:40.578Z,1.70
2019-02-15T18:10:09.353Z,1.70
2019-02-15T18:12:38.057Z,2.10
2019-02-15T18:15:07.309Z,1.40
2019-02-15T18:17:36.052Z,1.60
2019-02-15T18:20:06.272Z,1.77
2019-02-15T18:22:34.955Z,4.60
2019-02-15T18:25:04.574Z,2.63
2019-02-15T18:27:33.397Z,4.63
2019-02-15T18:30:02.143Z,2.20
2019-02-15T18:32:30.974Z,2.33
2019-02-15T18:34:59.811Z,3.30
2019-02-15T18:37:28.590Z,5.20
2019-02-15T18:39:57.465Z,2.33
2019-02-15T18:42:26.105Z,2.73
2019-02-15T18:44:54.836Z,2.47
2019-02-15T18:47:23.607Z,1.97
2019-02-15T18:49:52.414Z,3.63
2019-02-15T18:52:21.329Z,2.13
2019-02-15T18:54:50.416Z,2.83
2019-02-15T18:57:20.364Z,2.73
2019-02-15T18:59:49.183Z,2.30
2019-02-15T19:02:17.838Z,2.43
2019-02-15T19:04:46.684Z,2.60
2019-02-15T19:07:15.484Z,3.50
2019-02-15T19:09:44.283Z,3.03
2019-02-15T19:12:13.101Z,6.23
2019-02-15T19:14:41.832Z,4.50
2019-02-15T19:17:10.648Z,3.67
2019-02-15T19:19:39.453Z,4.07
2019-02-15T19:22:08.706Z,9.53
2019-02-15T19:24:37.387Z,4.20
2019-02-15T19:27:06.227Z,4.77
2019-02-15T19:29:35.101Z,49.03
2019-02-15T19:32:03.863Z,13.67
2019-02-15T19:34:32.638Z,3.40
2019-02-15T19:37:01.575Z,2.70
2019-02-15T19:39:30.403Z,3.33
2019-02-15T19:41:59.282Z,4.17
2019-02-15T19:44:28.020Z,4.40
2019-02-15T19:46:56.799Z,8.07
2019-02-15T19:49:25.535Z,6.33
2019-02-15T19:51:54.372Z,9.80
2019-02-15T19:54:23.154Z,16.67
2019-02-15T19:56:51.856Z,12.13
2019-02-15T19:59:20.701Z,8.13
2019-02-15T20:01:49.467Z,5.10
2019-02-15T20:04:18.291Z,4.90
2019-02-15T20:06:47.177Z,8.20
2019-02-15T20:09:15.945Z,6.20
2019-02-15T20:11:44.680Z,10.50
2019-02-15T20:14:13.532Z,6.03
2019-02-15T20:16:42.360Z,6.10
2019-02-15T20:19:11.128Z,9.83
2019-02-15T20:21:39.915Z,8.67
2019-02-15T20:24:08.631Z,7.83
2019-02-15T20:26:37.418Z,12.10
2019-02-15T20:29:06.238Z,9.23
2019-02-15T20:31:40.745Z,11.40
2019-02-15T20:34:09.476Z,7.80
2019-02-15T20:36:38.359Z,16.67
2019-02-15T20:39:07.265Z,8.80
2019-02-15T20:41:36.040Z,10.70
2019-02-15T20:44:04.819Z,10.93
2019-02-15T20:46:33.931Z,10.23
2019-02-15T20:49:04.867Z,10.03
2019-02-15T20:51:33.149Z,7.90
2019-02-15T20:54:01.946Z,8.57
2019-02-15T20:56:30.794Z,7.13
2019-02-15T20:58:59.489Z,6.23
2019-02-15T21:01:31.710Z,16.70
2019-02-15T21:04:00.384Z,8.07
2019-02-15T21:06:39.007Z,8.07
2019-02-15T21:09:02.101Z,7.47
2019-02-15T21:11:30.831Z,10.50
2019-02-15T21:13:59.673Z,8.23
2019-02-15T21:16:28.434Z,19.40
2019-02-15T21:18:58.103Z,23.90
2019-02-15T21:21:26.905Z,8.30
2019-02-15T21:23:55.704Z,9.93
2019-02-15T21:26:24.494Z,7.73
2019-02-15T21:28:53.537Z,11.80
2019-02-15T21:31:22.374Z,5.53
2019-02-15T21:33:51.188Z,21.53
2019-02-15T21:36:20.010Z,6.97
2019-02-15T21:38:48.737Z,7.70
2019-02-15T21:41:17.537Z,5.43
2019-02-15T21:43:46.289Z,5.10
2019-02-15T21:46:15.093Z,7.50
2019-02-15T21:48:45.183Z,5.07
2019-02-15T21:51:13.936Z,4.80
2019-02-15T21:53:42.595Z,5.13
2019-02-15T21:56:11.373Z,5.90
2019-02-15T21:58:40.004Z,5.37
2019-02-15T22:01:09.062Z,7.27
2019-02-15T22:03:37.908Z,4.97
2019-02-15T22:06:08.520Z,8.70
2019-02-15T22:08:38.858Z,10.97
2019-02-15T22:11:07.602Z,5.97
2019-02-15T22:13:36.483Z,5.60
2019-02-15T22:16:05.206Z,6.97
2019-02-15T22:18:33.860Z,5.63
2019-02-15T22:21:02.590Z,5.63
2019-02-15T22:23:31.429Z,6.53
2019-02-15T22:26:00.087Z,6.70
2019-02-15T22:28:28.919Z,6.27
2019-02-15T22:30:57.942Z,15.43
2019-02-15T22:33:26.569Z,5.07
2019-02-15T22:35:55.452Z,4.80
2019-02-15T22:38:24.282Z,13.10
2019-02-15T22:40:55.922Z,4.83
2019-02-15T22:43:24.664Z,7.27
2019-02-15T22:45:53.537Z,6.43
2019-02-15T22:48:22.261Z,12.63
2019-02-15T22:50:51.019Z,6.87
2019-02-15T22:53:25.485Z,7.87
2019-02-15T22:55:54.247Z,7.57
2019-02-15T22:58:23.068Z,13.70
2019-02-15T23:00:57.890Z,14.20
2019-02-15T23:03:27.956Z,6.40
2019-02-15T23:05:56.780Z,9.70
2019-02-15T23:08:25.585Z,7.50
2019-02-15T23:10:54.479Z,12.80
2019-02-15T23:13:24.702Z,7.03
2019-02-15T23:15:53.419Z,6.00
2019-02-15T23:18:22.280Z,6.90
2019-02-15T23:20:51.085Z,8.43
2019-02-15T23:23:19.792Z,6.50
2019-02-15T23:25:48.549Z,7.13
2019-02-15T23:28:17.245Z,7.30
2019-02-15T23:30:46.076Z,7.60
2019-02-15T23:33:14.854Z,5.93
2019-02-15T23:35:43.602Z,5.63
2019-02-15T23:38:12.292Z,9.30
2019-02-15T23:40:41.054Z,6.93
2019-02-15T23:43:09.725Z,6.80
2019-02-15T23:45:39.166Z,7.00
2019-02-15T23:48:07.928Z,6.50
2019-02-15T23:50:36.884Z,7.63
2019-02-15T23:53:05.688Z,7.33
2019-02-15T23:55:34.322Z,7.47
2019-02-15T23:58:03.178Z,6.80
